Covadonga — CQMQ — position and weather

sailwx.info

Track history (hours):
 
Tides and Currents Weather Stations Pressure Air Temp Water Temp Dewpoint Dewpoint Depression Visibility Wind Speed Wind Dir Waves Ship Positions

Covadonga

Last reported at 2018-Jun-15 10:20 UTC. Time now 2018-Jun-19 02:56 UTC.
Position N 36°60' E 002°56'.

Length 119 m; draft 5.6 m.

Type: Ship (hazmat cat A). MMSI: 255803540.

Date/timePositionNaut miles runAvg speedWind from/ knotsBaromVisibWave heightAir tempDewpointWater temp
2018-Jun-15 10:20N 36°60' E 002°56'17514.8
2018-Jun-14 22:32N 36°33' W 000°40'3415.1
2018-Jun-14 20:17N 36°28' W 001°22'615.6
2018-Jun-14 19:54N 36°27' W 001°29'18315.7
2018-Jun-14 08:13N 35°60' W 005°14'417.1
2018-Jun-14 08:00N 35°59' W 005°18'917.8
2018-Jun-14 07:30N 35°57' W 005°29'276 9.3
2018-Jun-13 01:58N 38°43' W 010°05'1015.0
2018-Jun-13 01:19N 38°53' W 010°05'614.8
2018-Jun-13 00:55N 38°59' W 010°06'1014.7
2018-Jun-13 00:13N 39°09' W 010°05'314.9
2018-Jun-13 00:00N 39°12' W 010°05'31811.2
2018-Jun-11 19:34N 43°40' W 006°16'214.2
2018-Jun-11 19:27N 43°40' W 006°14'713.8
2018-Jun-11 18:57N 43°39' W 006°05'  
2018-Jun-09 12:37N 43°38' W 005°58'3 9.4
2018-Jun-09 12:16N 43°41' W 005°58'37012.5
2018-Jun-08 06:37N 49°40' W 003°45'214.6
2018-Jun-08 06:30N 49°41' W 003°43'814.5
2018-Jun-08 05:57N 49°45' W 003°33'614.4
2018-Jun-08 05:30N 49°49' W 003°24'714.1
2018-Jun-08 05:01N 49°52' W 003°15'713.8
2018-Jun-08 04:30N 49°55' W 003°05'713.5
2018-Jun-08 04:00N 49°59' W 002°56'713.2
2018-Jun-08 03:30N 50°01' W 002°46'912.8
2018-Jun-08 02:50N 50°03' W 002°33'7313.6
2018-Jun-07 21:29N 50°22' W 000°44'1215.4
2018-Jun-07 20:44N 50°25' W 000°26'415.3
2018-Jun-07 20:29N 50°26' W 000°20'2414.6
2018-Jun-07 18:49N 50°31' E 000°17'514.4
2018-Jun-07 18:29N 50°33' E 000°24'714.1
2018-Jun-07 18:01N 50°35' E 000°34'713.9
2018-Jun-07 17:30N 50°39' E 000°43'713.7
2018-Jun-07 17:00N 50°43' E 000°52'713.7
2018-Jun-07 16:30N 50°46' E 001°01'2014.0
2018-Jun-07 15:06N 50°60' E 001°25'215.6
2018-Jun-07 15:00N 51°01' E 001°26'816.1
2018-Jun-07 14:31N 51°06' E 001°36'612.0
2018-Jun-07 14:00N 51°04' E 001°45'611.7
2018-Jun-07 13:31N 51°02' E 001°53'714.8
2018-Jun-07 13:00N 51°03' E 002°05'714.5
2018-Jun-07 12:30N 51°04' E 002°17'3 4.2
2018-Jun-07 11:48N 51°03' E 002°21'0 1.2
2018-Jun-07 11:25N 51°03' E 002°21'0 0.0
2018-Jun-07 10:58N 51°03' E 002°21'0 0.0
2018-Jun-07 10:28N 51°03' E 002°21'0 0.0
2018-Jun-07 09:52N 51°03' E 002°21'0 0.0
2018-Jun-07 09:28N 51°03' E 002°21'0 0.0
2018-Jun-07 08:55N 51°03' E 002°21'0 0.0
2018-Jun-07 08:25N 51°03' E 002°21'0 0.0
2018-Jun-07 07:58N 51°03' E 002°21'0 0.0
2018-Jun-07 07:28N 51°03' E 002°21'0 0.0
2018-Jun-07 06:55N 51°03' E 002°21'0 0.0
2018-Jun-07 06:28N 51°03' E 002°21'0 0.0
2018-Jun-07 05:49N 51°03' E 002°21'0 0.0
2018-Jun-07 05:04N 51°03' E 002°21'0 0.0
2018-Jun-07 04:58N 51°03' E 002°21'0 0.0
2018-Jun-07 04:28N 51°03' E 002°21'0 0.0
2018-Jun-07 03:58N 51°03' E 002°21'0 0.0
2018-Jun-07 03:28N 51°03' E 002°21'0 0.0
2018-Jun-07 02:52N 51°03' E 002°21'0 0.0
2018-Jun-07 01:52N 51°03' E 002°21'0 0.0
2018-Jun-07 01:28N 51°03' E 002°21'0 0.0
2018-Jun-07 00:52N 51°03' E 002°21'0 0.0
2018-Jun-07 00:28N 51°03' E 002°21'0 0.0
2018-Jun-06 23:55N 51°03' E 002°21'0 0.0
2018-Jun-06 23:22N 51°03' E 002°21'0 0.0
2018-Jun-06 22:55N 51°03' E 002°21'0 0.0
2018-Jun-06 22:22N 51°03' E 002°21'0 0.0
2018-Jun-06 21:58N 51°03' E 002°21'0 0.0
2018-Jun-06 21:25N 51°03' E 002°21'0 0.0
2018-Jun-06 20:58N 51°03' E 002°21'0 0.0
2018-Jun-06 20:28N 51°03' E 002°21'0 0.0
2018-Jun-06 19:58N 51°03' E 002°21'0 0.0
2018-Jun-06 19:22N 51°03' E 002°21'0 0.0
2018-Jun-06 18:43N 51°03' E 002°21'0 0.0
2018-Jun-06 18:22N 51°03' E 002°21'0 0.0
2018-Jun-06 17:55N 51°03' E 002°21'0 0.0
2018-Jun-06 17:13N 51°03' E 002°21'0 0.0
2018-Jun-06 16:58N 51°03' E 002°21'0 0.0
2018-Jun-06 16:25N 51°03' E 002°21'0 0.0
2018-Jun-06 15:55N 51°03' E 002°21'0 0.0
2018-Jun-06 15:28N 51°03' E 002°21'0 0.0
2018-Jun-06 14:58N 51°03' E 002°21'0 0.0
2018-Jun-06 14:28N 51°03' E 002°21'0 0.0
2018-Jun-06 13:49N 51°03' E 002°21'0 0.0
2018-Jun-06 13:25N 51°03' E 002°21'0 0.0
2018-Jun-06 12:55N 51°03' E 002°21'0 0.0
2018-Jun-06 12:16N 51°03' E 002°21'0 0.0
2018-Jun-06 11:55N 51°03' E 002°21'0 0.0
2018-Jun-06 11:16N 51°03' E 002°21'0 0.0
2018-Jun-06 10:52N 51°03' E 002°21'0 0.0
2018-Jun-06 10:19N 51°03' E 002°21'0 0.0
2018-Jun-06 09:52N 51°03' E 002°21'0 0.0
2018-Jun-06 08:46N 51°03' E 002°21'0 0.0
2018-Jun-06 07:37N 51°03' E 002°21'0 0.0
2018-Jun-06 06:55N 51°03' E 002°21'0 0.0
2018-Jun-06 06:28N 51°03' E 002°21'0 0.0
2018-Jun-06 05:52N 51°03' E 002°21'0 0.0
2018-Jun-06 05:28N 51°03' E 002°21'0 0.0
2018-Jun-06 04:49N 51°03' E 002°21'0 0.0
2018-Jun-06 04:10N 51°03' E 002°21'0 0.0
2018-Jun-06 03:58N 51°03' E 002°21'0 0.0
2018-Jun-06 03:07N 51°03' E 002°21'0 0.0
2018-Jun-06 02:46N 51°03' E 002°21'0 0.0
2018-Jun-06 02:25N 51°03' E 002°21'0 0.0
2018-Jun-06 01:52N 51°03' E 002°21'0 0.0
2018-Jun-06 01:25N 51°03' E 002°21'0 0.0
2018-Jun-06 00:31N 51°03' E 002°21'0 0.0
2018-Jun-06 00:28N 51°03' E 002°21'0 0.0
2018-Jun-05 23:55N 51°03' E 002°21'0 0.0
2018-Jun-05 23:28N 51°03' E 002°21'0 0.0
2018-Jun-05 22:52N 51°03' E 002°21'0 0.0
2018-Jun-05 22:22N 51°03' E 002°21'0 0.0
2018-Jun-05 21:37N 51°03' E 002°21'0 0.0
2018-Jun-05 21:28N 51°03' E 002°21'0 0.0
2018-Jun-05 20:43N 51°03' E 002°21'0 0.0
2018-Jun-05 20:25N 51°03' E 002°21'0 0.0
2018-Jun-05 19:58N 51°03' E 002°21'0 0.0
2018-Jun-05 19:07N 51°03' E 002°21'0 0.0
2018-Jun-05 18:58N 51°03' E 002°21'0 0.0
2018-Jun-05 18:16N 51°03' E 002°21'0 0.0
2018-Jun-05 17:52N 51°03' E 002°21'0 0.0
2018-Jun-05 17:25N 51°03' E 002°21'0 0.0
2018-Jun-05 16:55N 51°03' E 002°21'0 0.0
2018-Jun-05 16:16N 51°03' E 002°21'0 0.0
2018-Jun-05 15:58N 51°03' E 002°21'0 0.0
2018-Jun-05 14:43N 51°03' E 002°21'0 0.0
2018-Jun-05 14:25N 51°03' E 002°21'0 0.0
2018-Jun-05 13:13N 51°03' E 002°21'0 0.0
2018-Jun-05 12:49N 51°03' E 002°21'0 0.0
2018-Jun-05 12:28N 51°03' E 002°21'0 0.0
2018-Jun-05 11:58N 51°03' E 002°21'0 0.0
2018-Jun-05 11:28N 51°03' E 002°21'0 0.0
2018-Jun-05 10:37N 51°03' E 002°21'  
Track history (hours):
 
Tides and Currents Weather Stations Pressure Air Temp Water Temp Dewpoint Dewpoint Depression Visibility Wind Speed Wind Dir Waves Ship Positions

Covadonga

Last reported at 2018-Jun-15 10:20 UTC. Time now 2018-Jun-19 02:56 UTC.
Position N 36°60' E 002°56'.

Length 119 m; draft 5.6 m.

Type: Ship (hazmat cat A). MMSI: 255803540.

Date/timePositionNaut miles runAvg speedWind from/ knotsBaromVisibWave heightAir tempDewpointWater temp
2018-Jun-15 10:20N 36°60' E 002°56'17514.8
2018-Jun-14 22:32N 36°33' W 000°40'3415.1
2018-Jun-14 20:17N 36°28' W 001°22'615.6
2018-Jun-14 19:54N 36°27' W 001°29'18315.7
2018-Jun-14 08:13N 35°60' W 005°14'417.1
2018-Jun-14 08:00N 35°59' W 005°18'917.8
2018-Jun-14 07:30N 35°57' W 005°29'276 9.3
2018-Jun-13 01:58N 38°43' W 010°05'1015.0
2018-Jun-13 01:19N 38°53' W 010°05'614.8
2018-Jun-13 00:55N 38°59' W 010°06'1014.7
2018-Jun-13 00:13N 39°09' W 010°05'314.9
2018-Jun-13 00:00N 39°12' W 010°05'31811.2
2018-Jun-11 19:34N 43°40' W 006°16'214.2
2018-Jun-11 19:27N 43°40' W 006°14'713.8
2018-Jun-11 18:57N 43°39' W 006°05'  
2018-Jun-09 12:37N 43°38' W 005°58'3 9.4
2018-Jun-09 12:16N 43°41' W 005°58'37012.5
2018-Jun-08 06:37N 49°40' W 003°45'214.6
2018-Jun-08 06:30N 49°41' W 003°43'814.5
2018-Jun-08 05:57N 49°45' W 003°33'614.4
2018-Jun-08 05:30N 49°49' W 003°24'714.1
2018-Jun-08 05:01N 49°52' W 003°15'713.8
2018-Jun-08 04:30N 49°55' W 003°05'713.5
2018-Jun-08 04:00N 49°59' W 002°56'713.2
2018-Jun-08 03:30N 50°01' W 002°46'912.8
2018-Jun-08 02:50N 50°03' W 002°33'7313.6
2018-Jun-07 21:29N 50°22' W 000°44'1215.4
2018-Jun-07 20:44N 50°25' W 000°26'415.3
2018-Jun-07 20:29N 50°26' W 000°20'2414.6
2018-Jun-07 18:49N 50°31' E 000°17'514.4
2018-Jun-07 18:29N 50°33' E 000°24'714.1
2018-Jun-07 18:01N 50°35' E 000°34'713.9
2018-Jun-07 17:30N 50°39' E 000°43'713.7
2018-Jun-07 17:00N 50°43' E 000°52'713.7
2018-Jun-07 16:30N 50°46' E 001°01'2014.0
2018-Jun-07 15:06N 50°60' E 001°25'215.6
2018-Jun-07 15:00N 51°01' E 001°26'816.1
2018-Jun-07 14:31N 51°06' E 001°36'612.0
2018-Jun-07 14:00N 51°04' E 001°45'611.7
2018-Jun-07 13:31N 51°02' E 001°53'714.8
2018-Jun-07 13:00N 51°03' E 002°05'714.5
2018-Jun-07 12:30N 51°04' E 002°17'3 4.2
2018-Jun-07 11:48N 51°03' E 002°21'0 1.2
2018-Jun-07 11:25N 51°03' E 002°21'0 0.0
2018-Jun-07 10:58N 51°03' E 002°21'0 0.0
2018-Jun-07 10:28N 51°03' E 002°21'0 0.0
2018-Jun-07 09:52N 51°03' E 002°21'0 0.0
2018-Jun-07 09:28N 51°03' E 002°21'0 0.0
2018-Jun-07 08:55N 51°03' E 002°21'0 0.0
2018-Jun-07 08:25N 51°03' E 002°21'0 0.0
2018-Jun-07 07:58N 51°03' E 002°21'0 0.0
2018-Jun-07 07:28N 51°03' E 002°21'0 0.0
2018-Jun-07 06:55N 51°03' E 002°21'0 0.0
2018-Jun-07 06:28N 51°03' E 002°21'0 0.0
2018-Jun-07 05:49N 51°03' E 002°21'0 0.0
2018-Jun-07 05:04N 51°03' E 002°21'0 0.0
2018-Jun-07 04:58N 51°03' E 002°21'0 0.0
2018-Jun-07 04:28N 51°03' E 002°21'0 0.0
2018-Jun-07 03:58N 51°03' E 002°21'0 0.0
2018-Jun-07 03:28N 51°03' E 002°21'0 0.0
2018-Jun-07 02:52N 51°03' E 002°21'0 0.0
2018-Jun-07 01:52N 51°03' E 002°21'0 0.0
2018-Jun-07 01:28N 51°03' E 002°21'0 0.0
2018-Jun-07 00:52N 51°03' E 002°21'0 0.0
2018-Jun-07 00:28N 51°03' E 002°21'0 0.0
2018-Jun-06 23:55N 51°03' E 002°21'0 0.0
2018-Jun-06 23:22N 51°03' E 002°21'0 0.0
2018-Jun-06 22:55N 51°03' E 002°21'0 0.0
2018-Jun-06 22:22N 51°03' E 002°21'0 0.0
2018-Jun-06 21:58N 51°03' E 002°21'0 0.0
2018-Jun-06 21:25N 51°03' E 002°21'0 0.0
2018-Jun-06 20:58N 51°03' E 002°21'0 0.0
2018-Jun-06 20:28N 51°03' E 002°21'0 0.0
2018-Jun-06 19:58N 51°03' E 002°21'0 0.0
2018-Jun-06 19:22N 51°03' E 002°21'0 0.0
2018-Jun-06 18:43N 51°03' E 002°21'0 0.0
2018-Jun-06 18:22N 51°03' E 002°21'0 0.0
2018-Jun-06 17:55N 51°03' E 002°21'0 0.0
2018-Jun-06 17:13N 51°03' E 002°21'0 0.0
2018-Jun-06 16:58N 51°03' E 002°21'0 0.0
2018-Jun-06 16:25N 51°03' E 002°21'0 0.0
2018-Jun-06 15:55N 51°03' E 002°21'0 0.0
2018-Jun-06 15:28N 51°03' E 002°21'0 0.0
2018-Jun-06 14:58N 51°03' E 002°21'0 0.0
2018-Jun-06 14:28N 51°03' E 002°21'0 0.0
2018-Jun-06 13:49N 51°03' E 002°21'0 0.0
2018-Jun-06 13:25N 51°03' E 002°21'0 0.0
2018-Jun-06 12:55N 51°03' E 002°21'0 0.0
2018-Jun-06 12:16N 51°03' E 002°21'0 0.0
2018-Jun-06 11:55N 51°03' E 002°21'0 0.0
2018-Jun-06 11:16N 51°03' E 002°21'0 0.0
2018-Jun-06 10:52N 51°03' E 002°21'0 0.0
2018-Jun-06 10:19N 51°03' E 002°21'0 0.0
2018-Jun-06 09:52N 51°03' E 002°21'0 0.0
2018-Jun-06 08:46N 51°03' E 002°21'0 0.0
2018-Jun-06 07:37N 51°03' E 002°21'0 0.0
2018-Jun-06 06:55N 51°03' E 002°21'0 0.0
2018-Jun-06 06:28N 51°03' E 002°21'0 0.0
2018-Jun-06 05:52N 51°03' E 002°21'0 0.0
2018-Jun-06 05:28N 51°03' E 002°21'0 0.0
2018-Jun-06 04:49N 51°03' E 002°21'0 0.0
2018-Jun-06 04:10N 51°03' E 002°21'0 0.0
2018-Jun-06 03:58N 51°03' E 002°21'0 0.0
2018-Jun-06 03:07N 51°03' E 002°21'0 0.0
2018-Jun-06 02:46N 51°03' E 002°21'0 0.0
2018-Jun-06 02:25N 51°03' E 002°21'0 0.0
2018-Jun-06 01:52N 51°03' E 002°21'0 0.0
2018-Jun-06 01:25N 51°03' E 002°21'0 0.0
2018-Jun-06 00:31N 51°03' E 002°21'0 0.0
2018-Jun-06 00:28N 51°03' E 002°21'0 0.0
2018-Jun-05 23:55N 51°03' E 002°21'0 0.0
2018-Jun-05 23:28N 51°03' E 002°21'0 0.0
2018-Jun-05 22:52N 51°03' E 002°21'0 0.0
2018-Jun-05 22:22N 51°03' E 002°21'0 0.0
2018-Jun-05 21:37N 51°03' E 002°21'0 0.0
2018-Jun-05 21:28N 51°03' E 002°21'0 0.0
2018-Jun-05 20:43N 51°03' E 002°21'0 0.0
2018-Jun-05 20:25N 51°03' E 002°21'0 0.0
2018-Jun-05 19:58N 51°03' E 002°21'0 0.0
2018-Jun-05 19:07N 51°03' E 002°21'0 0.0
2018-Jun-05 18:58N 51°03' E 002°21'0 0.0
2018-Jun-05 18:16N 51°03' E 002°21'0 0.0
2018-Jun-05 17:52N 51°03' E 002°21'0 0.0
2018-Jun-05 17:25N 51°03' E 002°21'0 0.0
2018-Jun-05 16:55N 51°03' E 002°21'0 0.0
2018-Jun-05 16:16N 51°03' E 002°21'0 0.0
2018-Jun-05 15:58N 51°03' E 002°21'0 0.0
2018-Jun-05 14:43N 51°03' E 002°21'0 0.0
2018-Jun-05 14:25N 51°03' E 002°21'0 0.0
2018-Jun-05 13:13N 51°03' E 002°21'0 0.0
2018-Jun-05 12:49N 51°03' E 002°21'0 0.0
2018-Jun-05 12:28N 51°03' E 002°21'0 0.0
2018-Jun-05 11:58N 51°03' E 002°21'0 0.0
2018-Jun-05 11:28N 51°03' E 002°21'0 0.0
2018-Jun-05 10:37N 51°03' E 002°21'  

Dump ship's entire track history